sensor_id;sensor_type;location;lat;lon;timestamp;temperature;humidity
65207;SHT31;58477;48.072;11.970;2022-10-24T00:01:40;16.83;72.21
65207;SHT31;58477;48.072;11.970;2022-10-24T00:04:05;16.79;72.74
65207;SHT31;58477;48.072;11.970;2022-10-24T00:06:32;16.67;72.77
65207;SHT31;58477;48.072;11.970;2022-10-24T00:08:58;16.62;73.47
65207;SHT31;58477;48.072;11.970;2022-10-24T00:11:26;16.55;73.61
65207;SHT31;58477;48.072;11.970;2022-10-24T00:13:54;16.39;74.37
65207;SHT31;58477;48.072;11.970;2022-10-24T00:16:20;16.40;73.44
65207;SHT31;58477;48.072;11.970;2022-10-24T00:18:46;16.28;74.75
65207;SHT31;58477;48.072;11.970;2022-10-24T00:21:12;16.33;74.56
65207;SHT31;58477;48.072;11.970;2022-10-24T00:23:38;16.43;73.53
65207;SHT31;58477;48.072;11.970;2022-10-24T00:26:04;16.43;74.10
65207;SHT31;58477;48.072;11.970;2022-10-24T00:28:32;16.46;74.15
65207;SHT31;58477;48.072;11.970;2022-10-24T00:30:58;16.46;73.53
65207;SHT31;58477;48.072;11.970;2022-10-24T00:33:24;16.48;73.02
65207;SHT31;58477;48.072;11.970;2022-10-24T00:35:50;16.50;73.22
65207;SHT31;58477;48.072;11.970;2022-10-24T00:38:16;16.40;73.63
65207;SHT31;58477;48.072;11.970;2022-10-24T00:40:41;16.38;73.85
65207;SHT31;58477;48.072;11.970;2022-10-24T00:43:16;16.29;74.25
65207;SHT31;58477;48.072;11.970;2022-10-24T00:45:49;16.33;73.86
65207;SHT31;58477;48.072;11.970;2022-10-24T00:48:30;16.34;73.90
65207;SHT31;58477;48.072;11.970;2022-10-24T00:51:02;16.42;73.34
65207;SHT31;58477;48.072;11.970;2022-10-24T00:53:31;16.34;73.73
65207;SHT31;58477;48.072;11.970;2022-10-24T00:55:59;16.22;75.56
65207;SHT31;58477;48.072;11.970;2022-10-24T00:58:27;15.89;78.64
65207;SHT31;58477;48.072;11.970;2022-10-24T01:00:54;15.53;80.50
65207;SHT31;58477;48.072;11.970;2022-10-24T01:03:19;15.30;81.71
65207;SHT31;58477;48.072;11.970;2022-10-24T01:08:34;15.10;82.34
65207;SHT31;58477;48.072;11.970;2022-10-24T01:11:18;15.07;82.80
65207;SHT31;58477;48.072;11.970;2022-10-24T01:17:06;15.00;83.48
65207;SHT31;58477;48.072;11.970;2022-10-24T01:22:22;14.97;83.65
65207;SHT31;58477;48.072;11.970;2022-10-24T01:25:17;14.86;84.24
65207;SHT31;58477;48.072;11.970;2022-10-24T01:28:02;14.72;85.62
65207;SHT31;58477;48.072;11.970;2022-10-24T01:30:30;14.66;86.56
65207;SHT31;58477;48.072;11.970;2022-10-24T01:33:03;14.60;86.41
65207;SHT31;58477;48.072;11.970;2022-10-24T01:35:40;14.49;86.41
65207;SHT31;58477;48.072;11.970;2022-10-24T01:43:26;14.32;88.58
65207;SHT31;58477;48.072;11.970;2022-10-24T01:45:57;14.11;89.54
65207;SHT31;58477;48.072;11.970;2022-10-24T01:48:27;14.01;90.64
65207;SHT31;58477;48.072;11.970;2022-10-24T01:50:55;14.00;90.44
65207;SHT31;58477;48.072;11.970;2022-10-24T01:53:24;13.94;91.06
65207;SHT31;58477;48.072;11.970;2022-10-24T01:55:50;13.88;91.15
65207;SHT31;58477;48.072;11.970;2022-10-24T01:58:17;13.81;92.08
65207;SHT31;58477;48.072;11.970;2022-10-24T02:00:44;13.82;91.75
65207;SHT31;58477;48.072;11.970;2022-10-24T02:03:31;13.70;92.37
65207;SHT31;58477;48.072;11.970;2022-10-24T02:06:03;13.75;92.64
65207;SHT31;58477;48.072;11.970;2022-10-24T02:08:39;13.65;92.47
65207;SHT31;58477;48.072;11.970;2022-10-24T02:11:06;13.75;91.27
65207;SHT31;58477;48.072;11.970;2022-10-24T02:16:09;13.78;90.46
65207;SHT31;58477;48.072;11.970;2022-10-24T02:18:36;13.74;91.89
65207;SHT31;58477;48.072;11.970;2022-10-24T02:24:20;13.55;93.26
65207;SHT31;58477;48.072;11.970;2022-10-24T02:29:42;13.46;93.58
65207;SHT31;58477;48.072;11.970;2022-10-24T02:32:12;13.62;92.61
65207;SHT31;58477;48.072;11.970;2022-10-24T02:34:40;13.64;93.74
65207;SHT31;58477;48.072;11.970;2022-10-24T02:37:07;13.67;93.02
65207;SHT31;58477;48.072;11.970;2022-10-24T02:39:34;13.54;94.11
65207;SHT31;58477;48.072;11.970;2022-10-24T02:42:01;13.68;92.79
65207;SHT31;58477;48.072;11.970;2022-10-24T02:44:29;13.62;93.88
65207;SHT31;58477;48.072;11.970;2022-10-24T02:46:57;13.64;93.27
65207;SHT31;58477;48.072;11.970;2022-10-24T02:49:24;13.58;94.28
65207;SHT31;58477;48.072;11.970;2022-10-24T02:51:50;13.64;93.16
65207;SHT31;58477;48.072;11.970;2022-10-24T02:54:16;13.64;93.51
65207;SHT31;58477;48.072;11.970;2022-10-24T02:56:48;13.37;94.63
65207;SHT31;58477;48.072;11.970;2022-10-24T02:59:15;13.50;94.30
65207;SHT31;58477;48.072;11.970;2022-10-24T03:01:40;13.57;93.09
65207;SHT31;58477;48.072;11.970;2022-10-24T03:04:06;13.53;93.81
65207;SHT31;58477;48.072;11.970;2022-10-24T03:06:31;13.60;93.17
65207;SHT31;58477;48.072;11.970;2022-10-24T03:08:57;13.60;93.26
65207;SHT31;58477;48.072;11.970;2022-10-24T03:11:22;13.61;93.55
65207;SHT31;58477;48.072;11.970;2022-10-24T03:13:48;13.65;93.10
65207;SHT31;58477;48.072;11.970;2022-10-24T03:16:13;13.61;93.25
65207;SHT31;58477;48.072;11.970;2022-10-24T03:18:39;13.55;93.66
65207;SHT31;58477;48.072;11.970;2022-10-24T03:21:04;13.40;94.74
65207;SHT31;58477;48.072;11.970;2022-10-24T03:23:30;13.31;95.04
65207;SHT31;58477;48.072;11.970;2022-10-24T03:25:57;13.28;94.96
65207;SHT31;58477;48.072;11.970;2022-10-24T03:28:23;13.36;94.73
65207;SHT31;58477;48.072;11.970;2022-10-24T03:30:48;13.54;93.00
65207;SHT31;58477;48.072;11.970;2022-10-24T03:33:14;13.55;92.98
65207;SHT31;58477;48.072;11.970;2022-10-24T03:35:39;13.55;93.39
65207;SHT31;58477;48.072;11.970;2022-10-24T03:38:05;13.54;92.95
65207;SHT31;58477;48.072;11.970;2022-10-24T03:40:33;13.60;92.95
65207;SHT31;58477;48.072;11.970;2022-10-24T03:42:59;13.47;93.66
65207;SHT31;58477;48.072;11.970;2022-10-24T03:45:25;13.50;93.48
65207;SHT31;58477;48.072;11.970;2022-10-24T03:47:50;13.50;93.57
65207;SHT31;58477;48.072;11.970;2022-10-24T03:50:16;13.47;93.83
65207;SHT31;58477;48.072;11.970;2022-10-24T03:52:41;13.57;93.10
65207;SHT31;58477;48.072;11.970;2022-10-24T03:55:07;13.57;93.31
65207;SHT31;58477;48.072;11.970;2022-10-24T03:57:32;13.48;93.69
65207;SHT31;58477;48.072;11.970;2022-10-24T03:59:58;13.50;93.61
65207;SHT31;58477;48.072;11.970;2022-10-24T04:02:23;13.43;94.48
65207;SHT31;58477;48.072;11.970;2022-10-24T04:04:49;13.33;94.93
65207;SHT31;58477;48.072;11.970;2022-10-24T04:07:14;13.40;94.59
65207;SHT31;58477;48.072;11.970;2022-10-24T04:09:40;13.36;94.46
65207;SHT31;58477;48.072;11.970;2022-10-24T04:12:05;13.33;94.87
65207;SHT31;58477;48.072;11.970;2022-10-24T04:14:31;13.33;94.81
65207;SHT31;58477;48.072;11.970;2022-10-24T04:16:56;13.44;93.74
65207;SHT31;58477;48.072;11.970;2022-10-24T04:19:21;13.47;93.21
65207;SHT31;58477;48.072;11.970;2022-10-24T04:21:48;13.50;93.01
65207;SHT31;58477;48.072;11.970;2022-10-24T04:24:13;13.48;93.18
65207;SHT31;58477;48.072;11.970;2022-10-24T04:26:39;13.40;93.64
65207;SHT31;58477;48.072;11.970;2022-10-24T04:29:05;13.33;94.33
65207;SHT31;58477;48.072;11.970;2022-10-24T04:31:30;13.34;94.00
65207;SHT31;58477;48.072;11.970;2022-10-24T04:33:56;13.28;94.47
65207;SHT31;58477;48.072;11.970;2022-10-24T04:36:21;13.21;94.65
65207;SHT31;58477;48.072;11.970;2022-10-24T04:38:46;13.21;94.85
65207;SHT31;58477;48.072;11.970;2022-10-24T04:41:12;13.24;94.75
65207;SHT31;58477;48.072;11.970;2022-10-24T04:43:38;13.31;94.24
65207;SHT31;58477;48.072;11.970;2022-10-24T04:46:04;13.33;94.39
65207;SHT31;58477;48.072;11.970;2022-10-24T04:48:30;13.34;94.33
65207;SHT31;58477;48.072;11.970;2022-10-24T04:50:56;13.31;94.50
65207;SHT31;58477;48.072;11.970;2022-10-24T04:53:21;13.31;94.63
65207;SHT31;58477;48.072;11.970;2022-10-24T04:55:47;13.34;94.35
65207;SHT31;58477;48.072;11.970;2022-10-24T04:58:12;13.41;93.89
65207;SHT31;58477;48.072;11.970;2022-10-24T05:00:38;13.33;94.85
65207;SHT31;58477;48.072;11.970;2022-10-24T05:03:03;13.26;95.14
65207;SHT31;58477;48.072;11.970;2022-10-24T05:05:29;13.27;94.81
65207;SHT31;58477;48.072;11.970;2022-10-24T05:07:55;13.28;95.17
65207;SHT31;58477;48.072;11.970;2022-10-24T05:10:20;13.31;94.86
65207;SHT31;58477;48.072;11.970;2022-10-24T05:12:45;13.37;94.23
65207;SHT31;58477;48.072;11.970;2022-10-24T05:15:11;13.28;94.78
65207;SHT31;58477;48.072;11.970;2022-10-24T05:17:38;13.26;95.26
65207;SHT31;58477;48.072;11.970;2022-10-24T05:20:04;13.24;95.19
65207;SHT31;58477;48.072;11.970;2022-10-24T05:22:30;13.33;94.89
65207;SHT31;58477;48.072;11.970;2022-10-24T05:24:55;13.39;94.69
65207;SHT31;58477;48.072;11.970;2022-10-24T05:27:21;13.39;94.71
65207;SHT31;58477;48.072;11.970;2022-10-24T05:29:54;13.31;95.38
65207;SHT31;58477;48.072;11.970;2022-10-24T05:32:21;13.36;95.15
65207;SHT31;58477;48.072;11.970;2022-10-24T05:34:46;13.37;95.10
65207;SHT31;58477;48.072;11.970;2022-10-24T05:37:12;13.44;94.75
65207;SHT31;58477;48.072;11.970;2022-10-24T05:39:37;13.43;94.82
65207;SHT31;58477;48.072;11.970;2022-10-24T05:42:03;13.46;94.82
65207;SHT31;58477;48.072;11.970;2022-10-24T05:44:29;13.37;95.38
65207;SHT31;58477;48.072;11.970;2022-10-24T05:46:54;13.39;95.72
65207;SHT31;58477;48.072;11.970;2022-10-24T05:49:20;13.31;96.30
65207;SHT31;58477;48.072;11.970;2022-10-24T05:51:45;13.31;96.27
65207;SHT31;58477;48.072;11.970;2022-10-24T05:54:11;13.37;96.06
65207;SHT31;58477;48.072;11.970;2022-10-24T05:56:36;13.37;96.07
65207;SHT31;58477;48.072;11.970;2022-10-24T05:59:02;13.39;96.15
65207;SHT31;58477;48.072;11.970;2022-10-24T06:01:29;13.34;96.39
65207;SHT31;58477;48.072;11.970;2022-10-24T06:03:54;13.44;96.08
65207;SHT31;58477;48.072;11.970;2022-10-24T06:06:20;13.44;96.06
65207;SHT31;58477;48.072;11.970;2022-10-24T06:08:45;13.40;96.16
65207;SHT31;58477;48.072;11.970;2022-10-24T06:11:11;13.46;95.61
65207;SHT31;58477;48.072;11.970;2022-10-24T06:13:38;13.54;95.40
65207;SHT31;58477;48.072;11.970;2022-10-24T06:16:08;13.51;95.52
65207;SHT31;58477;48.072;11.970;2022-10-24T06:18:34;13.48;95.45
65207;SHT31;58477;48.072;11.970;2022-10-24T06:21:01;13.50;95.94
65207;SHT31;58477;48.072;11.970;2022-10-24T06:23:27;13.44;95.97
65207;SHT31;58477;48.072;11.970;2022-10-24T06:25:53;13.48;95.85
65207;SHT31;58477;48.072;11.970;2022-10-24T06:28:18;13.48;95.76
65207;SHT31;58477;48.072;11.970;2022-10-24T06:30:47;13.53;95.60
65207;SHT31;58477;48.072;11.970;2022-10-24T06:33:13;13.46;96.26
65207;SHT31;58477;48.072;11.970;2022-10-24T06:35:38;13.43;96.23
65207;SHT31;58477;48.072;11.970;2022-10-24T06:38:04;13.46;96.05
65207;SHT31;58477;48.072;11.970;2022-10-24T06:40:29;13.44;97.68
65207;SHT31;58477;48.072;11.970;2022-10-24T06:42:55;13.40;97.68
65207;SHT31;58477;48.072;11.970;2022-10-24T06:45:21;13.44;96.26
65207;SHT31;58477;48.072;11.970;2022-10-24T06:47:49;13.44;96.09
65207;SHT31;58477;48.072;11.970;2022-10-24T06:50:14;13.39;96.34
65207;SHT31;58477;48.072;11.970;2022-10-24T06:52:40;13.46;95.52
65207;SHT31;58477;48.072;11.970;2022-10-24T06:55:06;13.47;95.75
65207;SHT31;58477;48.072;11.970;2022-10-24T06:57:31;13.39;96.24
65207;SHT31;58477;48.072;11.970;2022-10-24T06:59:57;13.47;96.29
65207;SHT31;58477;48.072;11.970;2022-10-24T07:02:22;13.53;95.82
65207;SHT31;58477;48.072;11.970;2022-10-24T07:04:48;13.57;95.84
65207;SHT31;58477;48.072;11.970;2022-10-24T07:07:18;13.70;95.48
65207;SHT31;58477;48.072;11.970;2022-10-24T07:09:44;13.71;95.95
65207;SHT31;58477;48.072;11.970;2022-10-24T07:12:10;13.81;95.54
65207;SHT31;58477;48.072;11.970;2022-10-24T07:14:35;14.00;94.24
65207;SHT31;58477;48.072;11.970;2022-10-24T07:17:01;13.98;94.35
65207;SHT31;58477;48.072;11.970;2022-10-24T07:19:27;14.04;94.99
65207;SHT31;58477;48.072;11.970;2022-10-24T07:21:52;13.97;95.19
65207;SHT31;58477;48.072;11.970;2022-10-24T07:24:18;14.04;94.64
65207;SHT31;58477;48.072;11.970;2022-10-24T07:26:45;14.09;93.83
65207;SHT31;58477;48.072;11.970;2022-10-24T07:29:11;14.08;93.81
65207;SHT31;58477;48.072;11.970;2022-10-24T07:31:36;14.01;94.17
65207;SHT31;58477;48.072;11.970;2022-10-24T07:34:04;13.92;93.91
65207;SHT31;58477;48.072;11.970;2022-10-24T07:36:30;13.92;94.46
65207;SHT31;58477;48.072;11.970;2022-10-24T07:38:57;13.89;94.38
65207;SHT31;58477;48.072;11.970;2022-10-24T07:41:24;13.89;94.58
65207;SHT31;58477;48.072;11.970;2022-10-24T07:43:50;13.85;94.95
65207;SHT31;58477;48.072;11.970;2022-10-24T07:46:17;13.85;94.82
65207;SHT31;58477;48.072;11.970;2022-10-24T07:48:43;13.89;94.86
65207;SHT31;58477;48.072;11.970;2022-10-24T07:51:12;13.89;94.88
65207;SHT31;58477;48.072;11.970;2022-10-24T07:53:38;13.89;95.21
65207;SHT31;58477;48.072;11.970;2022-10-24T07:56:04;13.95;95.22
65207;SHT31;58477;48.072;11.970;2022-10-24T07:58:34;14.00;95.08
65207;SHT31;58477;48.072;11.970;2022-10-24T08:01:09;14.06;95.05
65207;SHT31;58477;48.072;11.970;2022-10-24T08:03:35;14.11;95.35
65207;SHT31;58477;48.072;11.970;2022-10-24T08:06:05;14.04;95.35
65207;SHT31;58477;48.072;11.970;2022-10-24T08:08:31;14.01;95.70
65207;SHT31;58477;48.072;11.970;2022-10-24T08:10:57;14.01;96.34
65207;SHT31;58477;48.072;11.970;2022-10-24T08:13:22;13.98;96.00
65207;SHT31;58477;48.072;11.970;2022-10-24T08:15:48;13.97;96.06
65207;SHT31;58477;48.072;11.970;2022-10-24T08:18:13;13.89;96.00
65207;SHT31;58477;48.072;11.970;2022-10-24T08:20:39;13.89;96.30
65207;SHT31;58477;48.072;11.970;2022-10-24T08:23:04;13.97;96.25
65207;SHT31;58477;48.072;11.970;2022-10-24T08:25:30;13.91;96.38
65207;SHT31;58477;48.072;11.970;2022-10-24T08:27:55;14.00;96.42
65207;SHT31;58477;48.072;11.970;2022-10-24T08:30:20;14.04;95.75
65207;SHT31;58477;48.072;11.970;2022-10-24T08:32:46;14.06;95.71
65207;SHT31;58477;48.072;11.970;2022-10-24T08:35:15;13.97;96.05
65207;SHT31;58477;48.072;11.970;2022-10-24T08:37:42;14.06;95.84
65207;SHT31;58477;48.072;11.970;2022-10-24T08:40:11;14.02;96.18
65207;SHT31;58477;48.072;11.970;2022-10-24T08:42:40;14.01;96.61
65207;SHT31;58477;48.072;11.970;2022-10-24T08:45:12;13.98;96.61
65207;SHT31;58477;48.072;11.970;2022-10-24T08:48:07;14.01;96.65
65207;SHT31;58477;48.072;11.970;2022-10-24T08:50:34;14.06;95.95
65207;SHT31;58477;48.072;11.970;2022-10-24T08:53:27;14.01;96.09
65207;SHT31;58477;48.072;11.970;2022-10-24T08:55:55;14.02;96.29
65207;SHT31;58477;48.072;11.970;2022-10-24T08:58:25;14.16;96.09
65207;SHT31;58477;48.072;11.970;2022-10-24T09:00:53;14.15;96.21
65207;SHT31;58477;48.072;11.970;2022-10-24T09:06:00;14.43;94.28
65207;SHT31;58477;48.072;11.970;2022-10-24T09:08:45;14.39;94.79
65207;SHT31;58477;48.072;11.970;2022-10-24T09:14:25;14.48;94.23
65207;SHT31;58477;48.072;11.970;2022-10-24T09:19:37;14.50;95.13
65207;SHT31;58477;48.072;11.970;2022-10-24T09:22:03;14.55;94.96
65207;SHT31;58477;48.072;11.970;2022-10-24T09:27:11;14.46;95.14
65207;SHT31;58477;48.072;11.970;2022-10-24T09:29:38;14.56;95.77
65207;SHT31;58477;48.072;11.970;2022-10-24T09:32:13;14.63;95.70
65207;SHT31;58477;48.072;11.970;2022-10-24T09:34:39;14.87;94.81
65207;SHT31;58477;48.072;11.970;2022-10-24T09:37:04;14.97;94.15
65207;SHT31;58477;48.072;11.970;2022-10-24T09:39:31;14.81;93.50
65207;SHT31;58477;48.072;11.970;2022-10-24T09:41:59;14.70;94.44
65207;SHT31;58477;48.072;11.970;2022-10-24T09:46:56;14.77;94.27
65207;SHT31;58477;48.072;11.970;2022-10-24T09:49:31;14.70;95.05
65207;SHT31;58477;48.072;11.970;2022-10-24T09:52:02;14.62;94.30
65207;SHT31;58477;48.072;11.970;2022-10-24T09:54:30;14.75;94.54
65207;SHT31;58477;48.072;11.970;2022-10-24T09:57:14;14.60;94.77
65207;SHT31;58477;48.072;11.970;2022-10-24T09:59:48;14.62;94.97
65207;SHT31;58477;48.072;11.970;2022-10-24T10:05:13;14.53;95.08
65207;SHT31;58477;48.072;11.970;2022-10-24T10:07:41;14.32;96.10
65207;SHT31;58477;48.072;11.970;2022-10-24T10:13:01;14.40;96.07
65207;SHT31;58477;48.072;11.970;2022-10-24T10:17:59;14.56;95.58
65207;SHT31;58477;48.072;11.970;2022-10-24T10:23:15;14.60;95.54
65207;SHT31;58477;48.072;11.970;2022-10-24T10:25:41;14.69;95.40
65207;SHT31;58477;48.072;11.970;2022-10-24T10:28:21;14.73;95.07
65207;SHT31;58477;48.072;11.970;2022-10-24T10:30:52;14.75;95.40
65207;SHT31;58477;48.072;11.970;2022-10-24T10:33:29;14.80;95.78
65207;SHT31;58477;48.072;11.970;2022-10-24T10:36:09;14.45;96.60
65207;SHT31;58477;48.072;11.970;2022-10-24T10:38:52;14.42;96.37
65207;SHT31;58477;48.072;11.970;2022-10-24T10:49:31;14.68;95.84
65207;SHT31;58477;48.072;11.970;2022-10-24T10:52:05;14.68;95.93
65207;SHT31;58477;48.072;11.970;2022-10-24T11:00:14;14.53;96.55
65207;SHT31;58477;48.072;11.970;2022-10-24T11:03:32;14.59;96.23
65207;SHT31;58477;48.072;11.970;2022-10-24T11:11:08;14.56;96.77
65207;SHT31;58477;48.072;11.970;2022-10-24T11:13:39;14.56;96.86
65207;SHT31;58477;48.072;11.970;2022-10-24T11:16:11;14.66;96.22
65207;SHT31;58477;48.072;11.970;2022-10-24T11:18:41;14.66;95.72
65207;SHT31;58477;48.072;11.970;2022-10-24T11:21:10;14.66;94.50
65207;SHT31;58477;48.072;11.970;2022-10-24T11:26:30;14.70;95.12
65207;SHT31;58477;48.072;11.970;2022-10-24T11:31:52;14.66;95.71
65207;SHT31;58477;48.072;11.970;2022-10-24T11:34:31;14.66;95.46
65207;SHT31;58477;48.072;11.970;2022-10-24T11:39:41;14.66;95.48
65207;SHT31;58477;48.072;11.970;2022-10-24T11:42:17;14.45;95.97
65207;SHT31;58477;48.072;11.970;2022-10-24T11:45:04;14.55;95.69
65207;SHT31;58477;48.072;11.970;2022-10-24T11:47:40;14.46;95.65
65207;SHT31;58477;48.072;11.970;2022-10-24T11:50:16;14.46;94.51
65207;SHT31;58477;48.072;11.970;2022-10-24T11:55:51;14.39;94.82
65207;SHT31;58477;48.072;11.970;2022-10-24T11:58:20;14.39;94.84
65207;SHT31;58477;48.072;11.970;2022-10-24T12:17:44;14.39;93.99
65207;SHT31;58477;48.072;11.970;2022-10-24T12:20:18;14.33;94.46
65207;SHT31;58477;48.072;11.970;2022-10-24T12:22:45;14.32;94.54
65207;SHT31;58477;48.072;11.970;2022-10-24T12:25:27;14.18;94.87
65207;SHT31;58477;48.072;11.970;2022-10-24T12:28:00;14.06;94.80
65207;SHT31;58477;48.072;11.970;2022-10-24T12:30:29;13.98;95.08
65207;SHT31;58477;48.072;11.970;2022-10-24T12:35:48;13.79;95.70
65207;SHT31;58477;48.072;11.970;2022-10-24T12:51:35;13.60;96.42
65207;SHT31;58477;48.072;11.970;2022-10-24T12:59:34;13.50;96.44
65207;SHT31;58477;48.072;11.970;2022-10-24T13:15:37;13.44;96.61
65207;SHT31;58477;48.072;11.970;2022-10-24T13:20:36;13.40;96.32
65207;SHT31;58477;48.072;11.970;2022-10-24T13:23:10;13.41;96.00
65207;SHT31;58477;48.072;11.970;2022-10-24T13:25:38;13.33;96.15
65207;SHT31;58477;48.072;11.970;2022-10-24T13:30:41;13.26;96.53
65207;SHT31;58477;48.072;11.970;2022-10-24T13:33:39;13.30;95.97
65207;SHT31;58477;48.072;11.970;2022-10-24T13:38:37;13.28;96.11
65207;SHT31;58477;48.072;11.970;2022-10-24T13:41:07;13.27;95.97
65207;SHT31;58477;48.072;11.970;2022-10-24T13:43:38;13.30;95.71
65207;SHT31;58477;48.072;11.970;2022-10-24T13:46:08;13.26;96.18
65207;SHT31;58477;48.072;11.970;2022-10-24T13:48:39;13.23;96.62
65207;SHT31;58477;48.072;11.970;2022-10-24T13:51:39;13.28;96.11
65207;SHT31;58477;48.072;11.970;2022-10-24T13:54:15;13.31;96.07
65207;SHT31;58477;48.072;11.970;2022-10-24T13:56:44;13.40;96.38
65207;SHT31;58477;48.072;11.970;2022-10-24T13:59:32;13.47;96.25
65207;SHT31;58477;48.072;11.970;2022-10-24T14:02:01;13.44;96.28
65207;SHT31;58477;48.072;11.970;2022-10-24T14:04:27;13.43;96.00
65207;SHT31;58477;48.072;11.970;2022-10-24T14:07:02;13.44;96.13
65207;SHT31;58477;48.072;11.970;2022-10-24T14:09:29;13.39;95.68
65207;SHT31;58477;48.072;11.970;2022-10-24T14:12:02;13.33;95.82
65207;SHT31;58477;48.072;11.970;2022-10-24T14:14:32;13.34;96.11
65207;SHT31;58477;48.072;11.970;2022-10-24T14:17:24;13.33;96.40
65207;SHT31;58477;48.072;11.970;2022-10-24T14:19:54;13.24;96.43
65207;SHT31;58477;48.072;11.970;2022-10-24T14:22:23;13.28;96.25
65207;SHT31;58477;48.072;11.970;2022-10-24T14:24:49;13.33;95.98
65207;SHT31;58477;48.072;11.970;2022-10-24T14:27:15;13.30;95.96
65207;SHT31;58477;48.072;11.970;2022-10-24T14:29:59;13.23;96.06
65207;SHT31;58477;48.072;11.970;2022-10-24T14:32:27;13.16;96.54
65207;SHT31;58477;48.072;11.970;2022-10-24T14:34:54;13.11;96.89
65207;SHT31;58477;48.072;11.970;2022-10-24T14:37:27;13.07;97.09
65207;SHT31;58477;48.072;11.970;2022-10-24T14:39:54;13.06;97.36
65207;SHT31;58477;48.072;11.970;2022-10-24T14:42:20;13.10;97.46
65207;SHT31;58477;48.072;11.970;2022-10-24T14:44:46;13.10;97.16
65207;SHT31;58477;48.072;11.970;2022-10-24T14:49:46;13.07;97.01
65207;SHT31;58477;48.072;11.970;2022-10-24T14:52:33;13.04;97.26
65207;SHT31;58477;48.072;11.970;2022-10-24T14:57:37;13.03;96.87
65207;SHT31;58477;48.072;11.970;2022-10-24T15:00:07;12.99;96.83
65207;SHT31;58477;48.072;11.970;2022-10-24T15:02:41;12.95;96.67
65207;SHT31;58477;48.072;11.970;2022-10-24T15:08:33;12.96;97.20
65207;SHT31;58477;48.072;11.970;2022-10-24T15:10:41;12.96;96.95
65207;SHT31;58477;48.072;11.970;2022-10-24T15:13:16;12.93;97.02
65207;SHT31;58477;48.072;11.970;2022-10-24T15:20:38;12.82;96.69
65207;SHT31;58477;48.072;11.970;2022-10-24T15:23:06;12.85;96.41
65207;SHT31;58477;48.072;11.970;2022-10-24T15:25:36;12.83;96.39
65207;SHT31;58477;48.072;11.970;2022-10-24T15:28:04;12.83;96.38
65207;SHT31;58477;48.072;11.970;2022-10-24T15:30:35;12.77;96.20
65207;SHT31;58477;48.072;11.970;2022-10-24T15:33:04;12.80;96.12
65207;SHT31;58477;48.072;11.970;2022-10-24T15:35:34;12.73;96.42
65207;SHT31;58477;48.072;11.970;2022-10-24T15:38:11;12.69;95.52
65207;SHT31;58477;48.072;11.970;2022-10-24T15:40:40;12.69;95.31
65207;SHT31;58477;48.072;11.970;2022-10-24T15:43:10;12.63;95.40
65207;SHT31;58477;48.072;11.970;2022-10-24T15:45:36;12.57;96.06
65207;SHT31;58477;48.072;11.970;2022-10-24T15:48:01;12.55;96.17
65207;SHT31;58477;48.072;11.970;2022-10-24T15:50:27;12.57;95.83
65207;SHT31;58477;48.072;11.970;2022-10-24T15:52:55;12.50;96.05
65207;SHT31;58477;48.072;11.970;2022-10-24T15:55:23;12.46;96.05
65207;SHT31;58477;48.072;11.970;2022-10-24T15:57:49;12.45;96.25
65207;SHT31;58477;48.072;11.970;2022-10-24T16:00:17;12.42;95.94
65207;SHT31;58477;48.072;11.970;2022-10-24T16:02:44;12.45;96.47
65207;SHT31;58477;48.072;11.970;2022-10-24T16:05:18;12.41;96.07
65207;SHT31;58477;48.072;11.970;2022-10-24T16:07:44;12.42;95.73
65207;SHT31;58477;48.072;11.970;2022-10-24T16:10:13;12.32;95.86
65207;SHT31;58477;48.072;11.970;2022-10-24T16:12:39;12.34;96.11
65207;SHT31;58477;48.072;11.970;2022-10-24T16:15:05;12.34;95.89
65207;SHT31;58477;48.072;11.970;2022-10-24T16:17:31;12.34;96.07
65207;SHT31;58477;48.072;11.970;2022-10-24T16:19:57;12.36;96.01
65207;SHT31;58477;48.072;11.970;2022-10-24T16:22:22;12.36;96.45
65207;SHT31;58477;48.072;11.970;2022-10-24T16:24:48;12.43;96.24
65207;SHT31;58477;48.072;11.970;2022-10-24T16:27:13;12.43;96.39
65207;SHT31;58477;48.072;11.970;2022-10-24T16:29:39;12.52;96.24
65207;SHT31;58477;48.072;11.970;2022-10-24T16:32:04;12.45;95.97
65207;SHT31;58477;48.072;11.970;2022-10-24T16:34:29;12.42;95.79
65207;SHT31;58477;48.072;11.970;2022-10-24T16:36:55;12.35;96.14
65207;SHT31;58477;48.072;11.970;2022-10-24T16:39:20;12.39;96.16
65207;SHT31;58477;48.072;11.970;2022-10-24T16:41:46;12.28;96.30
65207;SHT31;58477;48.072;11.970;2022-10-24T16:44:12;12.28;96.31
65207;SHT31;58477;48.072;11.970;2022-10-24T16:46:38;12.24;96.42
65207;SHT31;58477;48.072;11.970;2022-10-24T16:49:03;12.21;96.86
65207;SHT31;58477;48.072;11.970;2022-10-24T16:51:29;12.21;96.17
65207;SHT31;58477;48.072;11.970;2022-10-24T16:54:01;12.28;95.70
65207;SHT31;58477;48.072;11.970;2022-10-24T16:56:27;12.21;96.09
65207;SHT31;58477;48.072;11.970;2022-10-24T16:58:52;12.17;96.20
65207;SHT31;58477;48.072;11.970;2022-10-24T17:01:18;12.22;95.84
65207;SHT31;58477;48.072;11.970;2022-10-24T17:03:44;12.11;96.22
65207;SHT31;58477;48.072;11.970;2022-10-24T17:06:10;12.15;96.22
65207;SHT31;58477;48.072;11.970;2022-10-24T17:08:36;12.11;96.48
65207;SHT31;58477;48.072;11.970;2022-10-24T17:11:02;12.08;96.44
65207;SHT31;58477;48.072;11.970;2022-10-24T17:13:28;12.06;96.50
65207;SHT31;58477;48.072;11.970;2022-10-24T17:15:54;12.08;96.85
65207;SHT31;58477;48.072;11.970;2022-10-24T17:18:19;12.11;96.85
65207;SHT31;58477;48.072;11.970;2022-10-24T17:20:48;12.10;96.54
65207;SHT31;58477;48.072;11.970;2022-10-24T17:23:16;12.12;96.64
65207;SHT31;58477;48.072;11.970;2022-10-24T17:25:43;12.08;96.28
65207;SHT31;58477;48.072;11.970;2022-10-24T17:28:13;12.08;96.60
65207;SHT31;58477;48.072;11.970;2022-10-24T17:30:40;12.06;96.52
65207;SHT31;58477;48.072;11.970;2022-10-24T17:33:06;12.05;96.14
65207;SHT31;58477;48.072;11.970;2022-10-24T17:35:35;12.04;96.18
65207;SHT31;58477;48.072;11.970;2022-10-24T17:40:46;12.01;95.92
65207;SHT31;58477;48.072;11.970;2022-10-24T17:43:19;11.98;95.89
65207;SHT31;58477;48.072;11.970;2022-10-24T17:45:45;11.97;95.79
65207;SHT31;58477;48.072;11.970;2022-10-24T17:48:11;11.97;95.49
65207;SHT31;58477;48.072;11.970;2022-10-24T17:50:37;11.98;95.04
65207;SHT31;58477;48.072;11.970;2022-10-24T17:53:02;11.97;95.45
65207;SHT31;58477;48.072;11.970;2022-10-24T17:55:28;11.94;95.71
65207;SHT31;58477;48.072;11.970;2022-10-24T17:57:53;11.88;96.10